Castellon de la Plana, Spain
Current Conditions -  °F | °C
As of 6:00 PM on Wednesday 22 Oct 2014 (Local Time) from LEBT Reporting Station
Clear Clear  
Wind Chill: 72°   Ceiling: Unl
Heat Index: 72°   Visibility: 6mi
Dew Point: 52°   Wind: 6mph
Humidity: 50%   Direction: 130°SE
Pressure: 30.21"   Gusts: NA
Location:  39.96°N, 0.26°E
Report Text: LEBT 221600Z AUTO 13005KT 110V170 CAVOK 22/11 Q1023
Loading
Personal Weather Stations






























Interactive Weather Map
Tropical Storm Tracking
New forecast layout! Learn more

10-Day Weather Forecast

Advertisements
Track Severe Weather on mobile